createdAt,value
2018-09-09T00:00:55.211Z,15.28
2018-09-09T00:01:56.600Z,15.37
2018-09-09T00:02:57.978Z,15.34
2018-09-09T00:03:59.360Z,15.40
2018-09-09T00:05:00.742Z,15.46
2018-09-09T00:06:02.120Z,15.34
2018-09-09T00:07:03.509Z,15.31
2018-09-09T00:08:04.889Z,15.41
2018-09-09T00:09:06.272Z,15.38
2018-09-09T00:10:07.654Z,15.37
2018-09-09T00:11:09.037Z,15.37
2018-09-09T00:12:10.460Z,15.35
2018-09-09T00:13:11.847Z,15.37
2018-09-09T00:14:13.237Z,15.34
2018-09-09T00:15:14.619Z,15.40
2018-09-09T00:16:16.004Z,15.30
2018-09-09T00:17:17.383Z,15.40
2018-09-09T00:18:18.851Z,15.33
2018-09-09T00:19:20.237Z,15.37
2018-09-09T00:20:21.645Z,15.35
2018-09-09T00:21:23.031Z,15.38
2018-09-09T00:22:24.412Z,15.38
2018-09-09T00:23:25.793Z,15.31
2018-09-09T00:24:27.181Z,15.28
2018-09-09T00:25:28.564Z,15.38
2018-09-09T00:26:29.945Z,15.27
2018-09-09T00:27:31.328Z,15.30
2018-09-09T00:28:32.720Z,15.30
2018-09-09T00:29:34.094Z,15.28
2018-09-09T00:30:35.483Z,15.31
2018-09-09T00:31:36.872Z,15.27
2018-09-09T00:32:38.246Z,15.30
2018-09-09T00:33:39.664Z,15.31
2018-09-09T00:34:41.045Z,15.27
2018-09-09T00:35:42.465Z,15.30
2018-09-09T00:36:43.845Z,15.27
2018-09-09T00:37:45.237Z,15.28
2018-09-09T00:38:46.611Z,15.33
2018-09-09T00:39:47.985Z,15.37
2018-09-09T00:40:49.380Z,15.37
2018-09-09T00:41:50.763Z,15.27
2018-09-09T00:42:52.145Z,15.33
2018-09-09T00:43:53.525Z,15.34
2018-09-09T00:44:54.915Z,15.30
2018-09-09T00:45:56.298Z,15.28
2018-09-09T00:46:57.679Z,15.30
2018-09-09T00:47:59.063Z,15.34
2018-09-09T00:49:00.440Z,15.27
2018-09-09T00:50:01.850Z,15.34
2018-09-09T00:51:03.242Z,15.38
2018-09-09T00:52:04.635Z,15.31
2018-09-09T00:53:06.006Z,15.38
2018-09-09T00:54:07.398Z,15.30
2018-09-09T00:55:08.779Z,15.34
2018-09-09T00:56:10.160Z,15.31
2018-09-09T00:57:11.536Z,15.22
2018-09-09T00:58:12.923Z,15.22
2018-09-09T00:59:14.302Z,15.27
2018-09-09T01:00:15.682Z,15.27
2018-09-09T01:01:17.071Z,15.31
2018-09-09T01:02:18.460Z,15.34
2018-09-09T01:03:19.832Z,15.23
2018-09-09T01:04:21.223Z,15.30
2018-09-09T01:05:22.615Z,15.28
2018-09-09T01:06:23.993Z,15.35
2018-09-09T01:07:25.376Z,15.34
2018-09-09T01:08:26.774Z,15.22
2018-09-09T01:09:28.155Z,15.31
2018-09-09T01:10:29.541Z,15.25
2018-09-09T01:11:30.985Z,15.25
2018-09-09T01:12:32.371Z,15.28
2018-09-09T01:13:33.761Z,15.18
2018-09-09T01:14:35.139Z,15.13
2018-09-09T01:15:36.511Z,15.15
2018-09-09T01:16:37.902Z,15.18
2018-09-09T01:17:39.280Z,15.27
2018-09-09T01:18:40.666Z,15.20
2018-09-09T01:19:42.045Z,15.20
2018-09-09T01:20:43.437Z,15.23
2018-09-09T01:21:44.810Z,15.23
2018-09-09T01:22:46.198Z,15.16
2018-09-09T01:23:47.583Z,15.15
2018-09-09T01:24:48.967Z,15.27
2018-09-09T01:25:50.344Z,15.18
2018-09-09T01:26:51.726Z,15.23
2018-09-09T01:27:53.107Z,15.16
2018-09-09T01:28:54.500Z,15.19
2018-09-09T01:29:55.885Z,15.20
2018-09-09T01:30:57.273Z,15.25
2018-09-09T01:31:58.659Z,15.18
2018-09-09T01:33:00.036Z,15.20
2018-09-09T01:34:01.426Z,15.20
2018-09-09T01:35:02.813Z,15.19
2018-09-09T01:36:04.201Z,15.22
2018-09-09T01:37:05.599Z,15.20
2018-09-09T01:38:06.995Z,15.16
2018-09-09T01:39:08.382Z,15.23
2018-09-09T01:40:09.761Z,15.15
2018-09-09T01:41:11.149Z,15.20
2018-09-09T01:42:12.559Z,15.18
2018-09-09T01:43:13.965Z,15.20
2018-09-09T01:44:15.349Z,15.18
2018-09-09T01:45:16.735Z,15.20
2018-09-09T01:46:18.147Z,15.15
2018-09-09T01:47:19.515Z,15.30
2018-09-09T01:48:20.857Z,15.15
2018-09-09T01:49:22.235Z,15.20
2018-09-09T01:50:23.617Z,15.18
2018-09-09T01:51:25.002Z,15.23
2018-09-09T01:52:26.387Z,15.16
2018-09-09T01:53:27.771Z,15.22
2018-09-09T01:54:29.156Z,15.23
2018-09-09T01:55:30.534Z,15.23
2018-09-09T01:56:31.917Z,15.27
2018-09-09T01:57:33.361Z,15.20
2018-09-09T01:58:34.811Z,15.22
2018-09-09T01:59:36.186Z,15.22
2018-09-09T02:00:37.577Z,15.16
2018-09-09T02:01:38.962Z,15.22
2018-09-09T02:02:40.343Z,15.18
2018-09-09T02:03:41.730Z,15.23
2018-09-09T02:04:43.114Z,15.19
2018-09-09T02:05:44.506Z,15.13
2018-09-09T02:06:45.884Z,15.27
2018-09-09T02:07:47.276Z,15.27
2018-09-09T02:08:48.659Z,15.25
2018-09-09T02:09:50.969Z,15.18
2018-09-09T02:10:52.385Z,15.23
2018-09-09T02:11:53.776Z,15.20
2018-09-09T02:12:55.148Z,15.22
2018-09-09T02:13:56.540Z,15.19
2018-09-09T02:14:57.922Z,15.20
2018-09-09T02:15:59.306Z,15.27
2018-09-09T02:17:00.692Z,15.28
2018-09-09T02:18:02.073Z,15.22
2018-09-09T02:19:03.451Z,15.19
2018-09-09T02:20:04.846Z,15.15
2018-09-09T02:21:06.219Z,15.20
2018-09-09T02:22:07.622Z,15.19
2018-09-09T02:23:09.007Z,15.31
2018-09-09T02:24:10.401Z,15.19
2018-09-09T02:25:11.799Z,15.23
2018-09-09T02:26:13.175Z,15.20
2018-09-09T02:27:14.565Z,15.15
2018-09-09T02:28:15.961Z,15.20
2018-09-09T02:29:17.335Z,15.15
2018-09-09T02:30:18.720Z,15.18
2018-09-09T02:31:20.111Z,15.13
2018-09-09T02:32:21.494Z,15.13
2018-09-09T02:33:22.879Z,15.12
2018-09-09T02:34:24.270Z,15.15
2018-09-09T02:35:25.646Z,15.09
2018-09-09T02:36:27.030Z,15.04
2018-09-09T02:37:28.410Z,15.04
2018-09-09T02:38:29.787Z,15.04
2018-09-09T02:39:31.168Z,14.91
2018-09-09T02:40:32.546Z,14.86
2018-09-09T02:41:33.934Z,14.91
2018-09-09T02:42:35.309Z,14.98
2018-09-09T02:43:36.762Z,14.95
2018-09-09T02:44:38.075Z,14.94
2018-09-09T02:45:39.461Z,14.87
2018-09-09T02:46:40.854Z,14.94
2018-09-09T02:47:42.231Z,14.91
2018-09-09T02:48:43.616Z,14.94
2018-09-09T02:49:44.992Z,14.93
2018-09-09T02:50:46.380Z,14.86
2018-09-09T02:51:47.764Z,14.91
2018-09-09T02:52:49.149Z,14.85
2018-09-09T02:53:50.517Z,14.91
2018-09-09T02:54:51.914Z,14.90
2018-09-09T02:55:53.294Z,14.93
2018-09-09T02:56:54.694Z,14.90
2018-09-09T02:57:56.074Z,14.94
2018-09-09T02:58:57.454Z,14.91
2018-09-09T02:59:58.839Z,14.90
2018-09-09T03:01:00.225Z,14.91
2018-09-09T03:02:01.614Z,14.91
2018-09-09T03:03:02.995Z,14.91
2018-09-09T03:04:04.372Z,14.90
2018-09-09T03:05:05.758Z,14.94
2018-09-09T03:06:07.153Z,14.94
2018-09-09T03:07:08.535Z,14.94
2018-09-09T03:08:09.918Z,14.90
2018-09-09T03:09:11.303Z,14.90
2018-09-09T03:10:12.685Z,14.93
2018-09-09T03:11:14.068Z,14.87
2018-09-09T03:12:15.446Z,14.87
2018-09-09T03:13:16.826Z,14.86
2018-09-09T03:14:18.216Z,14.83
2018-09-09T03:15:19.596Z,14.90
2018-09-09T03:16:20.971Z,14.90
2018-09-09T03:17:22.351Z,14.90
2018-09-09T03:18:23.739Z,14.91
2018-09-09T03:19:25.117Z,14.91
2018-09-09T03:20:26.494Z,14.87
2018-09-09T03:21:27.883Z,14.90
2018-09-09T03:22:29.267Z,14.83
2018-09-09T03:23:30.655Z,14.93
2018-09-09T03:24:32.036Z,14.90
2018-09-09T03:25:33.418Z,14.87
2018-09-09T03:26:34.805Z,14.79
2018-09-09T03:27:36.186Z,14.93
2018-09-09T03:28:37.685Z,14.79
2018-09-09T03:29:39.001Z,14.82
2018-09-09T03:30:40.383Z,14.80
2018-09-09T03:31:41.765Z,14.82
2018-09-09T03:32:43.152Z,14.85
2018-09-09T03:33:44.534Z,14.86
2018-09-09T03:34:45.928Z,14.75
2018-09-09T03:35:47.302Z,14.79
2018-09-09T03:36:48.675Z,14.80
2018-09-09T03:37:50.064Z,14.74
2018-09-09T03:38:51.446Z,14.74
2018-09-09T03:39:52.827Z,14.72
2018-09-09T03:40:54.203Z,14.71
2018-09-09T03:41:55.591Z,14.82
2018-09-09T03:42:56.978Z,14.74
2018-09-09T03:43:58.365Z,14.80
2018-09-09T03:44:59.745Z,14.72
2018-09-09T03:46:01.134Z,14.78
2018-09-09T03:47:02.514Z,14.80
2018-09-09T03:48:03.899Z,14.75
2018-09-09T03:49:05.312Z,14.78
2018-09-09T03:50:06.693Z,14.61
2018-09-09T03:51:08.078Z,14.67
2018-09-09T03:52:09.454Z,14.67
2018-09-09T03:53:10.844Z,14.59
2018-09-09T03:54:12.214Z,14.66
2018-09-09T03:55:13.603Z,14.52
2018-09-09T03:56:14.982Z,14.56
2018-09-09T03:57:16.364Z,14.56
2018-09-09T03:58:17.744Z,14.57
2018-09-09T03:59:19.122Z,14.56
2018-09-09T04:00:20.511Z,14.54
2018-09-09T04:01:21.901Z,14.49
2018-09-09T04:02:23.279Z,14.49
2018-09-09T04:03:24.659Z,14.54
2018-09-09T04:04:26.043Z,14.52
2018-09-09T04:05:27.423Z,14.48
2018-09-09T04:06:28.809Z,14.59
2018-09-09T04:07:30.188Z,14.60
2018-09-09T04:08:31.572Z,14.52
2018-09-09T04:09:32.952Z,14.44
2018-09-09T04:10:34.333Z,14.46
2018-09-09T04:11:35.716Z,14.44
2018-09-09T04:12:37.100Z,14.53
2018-09-09T04:13:38.479Z,14.44
2018-09-09T04:14:39.867Z,14.38
2018-09-09T04:15:41.262Z,14.42
2018-09-09T04:16:42.629Z,14.38
2018-09-09T04:17:44.022Z,14.36
2018-09-09T04:18:45.396Z,14.48
2018-09-09T04:19:46.779Z,14.42
2018-09-09T04:20:48.174Z,14.30
2018-09-09T04:21:49.542Z,14.36
2018-09-09T04:22:50.931Z,14.36
2018-09-09T04:23:52.311Z,14.38
2018-09-09T04:24:53.697Z,14.35
2018-09-09T04:25:55.085Z,14.29
2018-09-09T04:26:56.471Z,14.36
2018-09-09T04:27:57.859Z,14.30
2018-09-09T04:28:59.248Z,14.31
2018-09-09T04:30:00.626Z,14.36
2018-09-09T04:31:02.031Z,14.35
2018-09-09T04:32:03.392Z,14.26
2018-09-09T04:33:04.777Z,14.31
2018-09-09T04:34:06.154Z,14.31
2018-09-09T04:35:07.544Z,14.23
2018-09-09T04:36:08.920Z,14.27
2018-09-09T04:37:10.302Z,14.24
2018-09-09T04:38:11.694Z,14.30
2018-09-09T04:39:13.074Z,14.19
2018-09-09T04:40:14.461Z,14.29
2018-09-09T04:41:15.842Z,14.27
2018-09-09T04:42:17.227Z,14.23
2018-09-09T04:43:18.610Z,14.24
2018-09-09T04:44:20.001Z,14.21
2018-09-09T04:45:21.383Z,14.20
2018-09-09T04:46:22.850Z,14.16
2018-09-09T04:47:24.154Z,14.13
2018-09-09T04:48:25.537Z,14.16
2018-09-09T04:49:26.928Z,14.19
2018-09-09T04:50:28.314Z,14.19
2018-09-09T04:51:29.694Z,14.26
2018-09-09T04:52:31.083Z,14.16
2018-09-09T04:53:32.454Z,14.05
2018-09-09T04:54:33.837Z,14.09
2018-09-09T04:55:35.225Z,14.06
2018-09-09T04:56:36.605Z,14.09
2018-09-09T04:57:37.988Z,14.16
2018-09-09T04:58:39.376Z,14.08
2018-09-09T04:59:40.769Z,14.05
2018-09-09T05:00:42.145Z,14.11
2018-09-09T05:01:43.531Z,14.19
2018-09-09T05:02:44.913Z,14.21
2018-09-09T05:03:46.300Z,14.21
2018-09-09T05:04:47.687Z,14.17
2018-09-09T05:05:49.067Z,14.19
2018-09-09T05:06:50.458Z,14.19
2018-09-09T05:07:51.842Z,14.20
2018-09-09T05:08:53.233Z,14.24
2018-09-09T05:09:54.621Z,14.23
2018-09-09T05:10:56.014Z,14.26
2018-09-09T05:11:57.406Z,14.20
2018-09-09T05:12:58.789Z,14.24
2018-09-09T05:14:00.176Z,14.27
2018-09-09T05:15:01.565Z,14.30
2018-09-09T05:16:02.955Z,14.23
2018-09-09T05:17:04.334Z,14.31
2018-09-09T05:18:05.726Z,14.29
2018-09-09T05:19:07.107Z,14.35
2018-09-09T05:20:08.495Z,14.34
2018-09-09T05:21:09.882Z,14.26
2018-09-09T05:22:11.272Z,14.30
2018-09-09T05:23:12.649Z,14.41
2018-09-09T05:24:14.043Z,14.31
2018-09-09T05:25:15.422Z,14.30
2018-09-09T05:26:16.811Z,14.31
2018-09-09T05:27:18.197Z,14.31
2018-09-09T05:28:19.599Z,14.36
2018-09-09T05:29:20.978Z,14.36
2018-09-09T05:30:22.361Z,14.38
2018-09-09T05:31:23.767Z,14.36
2018-09-09T05:32:25.189Z,14.36
2018-09-09T05:33:26.521Z,14.30
2018-09-09T05:34:27.907Z,14.35
2018-09-09T05:35:29.289Z,14.36
2018-09-09T05:36:30.686Z,14.34
2018-09-09T05:37:32.062Z,14.27
2018-09-09T05:38:33.451Z,14.30
2018-09-09T05:39:34.835Z,14.26
2018-09-09T05:40:36.228Z,14.30
2018-09-09T05:41:37.617Z,14.24
2018-09-09T05:42:39.000Z,14.29
2018-09-09T05:43:40.385Z,14.30
2018-09-09T05:44:41.830Z,14.16
2018-09-09T05:45:43.120Z,14.27
2018-09-09T05:46:44.502Z,14.20
2018-09-09T05:47:45.886Z,14.21
2018-09-09T05:48:47.277Z,14.27
2018-09-09T05:49:48.678Z,14.21
2018-09-09T05:50:50.071Z,14.24
2018-09-09T05:51:51.448Z,14.27
2018-09-09T05:52:52.828Z,14.17
2018-09-09T05:53:54.251Z,14.26
2018-09-09T05:54:55.604Z,14.30
2018-09-09T05:55:56.992Z,14.36
2018-09-09T05:56:58.370Z,14.31
2018-09-09T05:57:59.759Z,14.34
2018-09-09T05:59:01.144Z,14.27
2018-09-09T06:00:02.536Z,14.30
2018-09-09T06:01:03.934Z,14.35
2018-09-09T06:02:05.307Z,14.41
2018-09-09T06:03:06.689Z,14.38
2018-09-09T06:04:08.088Z,14.39
2018-09-09T06:05:09.478Z,14.38
2018-09-09T06:06:10.856Z,14.42
2018-09-09T06:07:12.245Z,14.54
2018-09-09T06:08:13.630Z,14.44
2018-09-09T06:09:15.011Z,14.46
2018-09-09T06:10:16.393Z,14.49
2018-09-09T06:11:17.783Z,14.53
2018-09-09T06:12:19.170Z,14.48
2018-09-09T06:13:20.568Z,14.49
2018-09-09T06:14:21.942Z,14.57
2018-09-09T06:15:23.325Z,14.56
2018-09-09T06:16:24.735Z,14.64
2018-09-09T06:17:26.117Z,14.75
2018-09-09T06:18:27.523Z,14.79
2018-09-09T06:19:28.898Z,14.85
2018-09-09T06:20:30.291Z,14.93
2018-09-09T06:21:31.695Z,14.91
2018-09-09T06:22:33.080Z,15.13
2018-09-09T06:23:34.473Z,15.13
2018-09-09T06:24:35.857Z,15.16
2018-09-09T06:25:37.244Z,15.20
2018-09-09T06:26:38.632Z,15.33
2018-09-09T06:27:40.015Z,15.37
2018-09-09T06:28:41.418Z,15.35
2018-09-09T06:29:42.800Z,15.52
2018-09-09T06:30:44.193Z,15.56
2018-09-09T06:31:45.580Z,15.73
2018-09-09T06:32:46.957Z,15.74
2018-09-09T06:33:48.399Z,15.86
2018-09-09T06:34:49.747Z,15.85
2018-09-09T06:35:51.136Z,15.92
2018-09-09T06:36:52.525Z,15.95
2018-09-09T06:37:53.901Z,15.98
2018-09-09T06:38:55.369Z,16.04
2018-09-09T06:39:56.781Z,16.04
2018-09-09T06:40:58.176Z,15.98
2018-09-09T06:41:59.568Z,15.96
2018-09-09T06:43:00.953Z,15.98
2018-09-09T06:44:02.340Z,15.95
2018-09-09T06:45:03.731Z,16.03
2018-09-09T06:46:05.116Z,16.06
2018-09-09T06:47:06.494Z,16.07
2018-09-09T06:48:07.908Z,16.16
2018-09-09T06:49:09.292Z,16.13
2018-09-09T06:50:10.684Z,16.34
2018-09-09T06:51:12.124Z,16.23
2018-09-09T06:52:13.454Z,16.23
2018-09-09T06:53:14.841Z,16.27
2018-09-09T06:54:16.231Z,16.26
2018-09-09T06:55:17.631Z,16.29
2018-09-09T06:56:19.033Z,16.29
2018-09-09T06:57:20.413Z,16.23
2018-09-09T06:58:21.805Z,16.25
2018-09-09T06:59:23.209Z,16.25
2018-09-09T07:00:24.606Z,16.25
2018-09-09T07:01:25.996Z,16.29
2018-09-09T07:02:27.446Z,16.33
2018-09-09T07:03:28.779Z,16.41
2018-09-09T07:04:30.182Z,16.40
2018-09-09T07:05:31.595Z,16.47
2018-09-09T07:06:32.986Z,16.54
2018-09-09T07:07:34.377Z,16.54
2018-09-09T07:08:35.774Z,16.59
2018-09-09T07:09:37.166Z,16.63
2018-09-09T07:10:38.567Z,16.65
2018-09-09T07:11:40.066Z,16.57
2018-09-09T07:12:41.347Z,16.72
2018-09-09T07:13:42.742Z,16.73
2018-09-09T07:14:44.136Z,16.75
2018-09-09T07:15:45.527Z,16.81
2018-09-09T07:16:46.916Z,16.95
2018-09-09T07:17:48.310Z,16.91
2018-09-09T07:18:49.700Z,17.06
2018-09-09T07:19:51.084Z,16.99
2018-09-09T07:20:52.482Z,17.02
2018-09-09T07:21:53.875Z,17.10
2018-09-09T07:22:55.261Z,17.17
2018-09-09T07:23:56.667Z,17.35
2018-09-09T07:24:58.073Z,17.42
2018-09-09T07:25:59.459Z,17.49
2018-09-09T07:27:00.854Z,17.62
2018-09-09T07:28:02.241Z,17.66
2018-09-09T07:29:03.678Z,17.76
2018-09-09T07:30:05.047Z,17.81
2018-09-09T07:31:06.428Z,17.94
2018-09-09T07:32:07.818Z,17.99
2018-09-09T07:33:09.217Z,18.02
2018-09-09T07:34:10.624Z,18.10
2018-09-09T07:35:12.005Z,18.17
2018-09-09T07:36:13.409Z,18.20
2018-09-09T07:37:14.830Z,18.28
2018-09-09T07:38:16.188Z,18.34
2018-09-09T07:39:17.570Z,18.34
2018-09-09T07:40:18.978Z,18.49
2018-09-09T07:41:20.362Z,18.51
2018-09-09T07:42:21.762Z,18.53
2018-09-09T07:43:23.155Z,18.68
2018-09-09T07:44:24.555Z,18.72
2018-09-09T07:45:25.947Z,18.74
2018-09-09T07:46:27.376Z,18.79
2018-09-09T07:47:28.752Z,18.93
2018-09-09T07:48:30.148Z,18.90
2018-09-09T07:49:31.554Z,18.91
2018-09-09T07:50:32.952Z,18.99
2018-09-09T07:51:34.359Z,19.12
2018-09-09T07:52:35.730Z,19.34
2018-09-09T07:53:37.203Z,19.32
2018-09-09T07:54:38.592Z,19.52
2018-09-09T07:55:39.990Z,19.47
2018-09-09T07:56:41.404Z,19.70
2018-09-09T07:57:42.792Z,19.83
2018-09-09T07:58:44.200Z,19.94
2018-09-09T07:59:45.599Z,19.98
2018-09-09T08:00:47.003Z,20.10
2018-09-09T08:01:48.412Z,20.15
2018-09-09T08:02:49.807Z,20.27
2018-09-09T08:03:51.199Z,20.35
2018-09-09T08:04:52.595Z,20.38
2018-09-09T08:05:53.985Z,20.61
2018-09-09T08:06:55.385Z,20.63
2018-09-09T08:07:56.784Z,20.79
2018-09-09T08:08:58.247Z,20.82
2018-09-09T08:09:59.670Z,20.96
2018-09-09T08:11:01.051Z,20.98
2018-09-09T08:12:02.473Z,21.15
2018-09-09T08:13:03.849Z,21.19
2018-09-09T08:14:05.241Z,21.28
2018-09-09T08:15:06.640Z,21.37
2018-09-09T08:16:08.028Z,21.38
2018-09-09T08:17:09.434Z,21.51
2018-09-09T08:18:10.837Z,21.56
2018-09-09T08:19:12.238Z,21.59
2018-09-09T08:20:13.630Z,21.67
2018-09-09T08:21:15.018Z,21.73
2018-09-09T08:22:16.410Z,21.74
2018-09-09T08:23:17.811Z,21.77
2018-09-09T08:24:19.207Z,21.74
2018-09-09T08:25:20.612Z,21.74
2018-09-09T08:26:22.005Z,21.85
2018-09-09T08:27:23.396Z,22.05
2018-09-09T08:28:24.800Z,22.04
2018-09-09T08:29:26.199Z,22.15
2018-09-09T08:30:27.588Z,22.17
2018-09-09T08:31:28.988Z,22.26
2018-09-09T08:32:30.393Z,22.33
2018-09-09T08:33:31.791Z,22.29
2018-09-09T08:34:33.188Z,22.42
2018-09-09T08:35:34.586Z,22.39
2018-09-09T08:36:35.979Z,22.39
2018-09-09T08:37:38.324Z,22.49
2018-09-09T08:38:39.742Z,22.36
2018-09-09T08:39:41.132Z,22.45
2018-09-09T08:40:42.528Z,22.45
2018-09-09T08:41:43.929Z,22.44
2018-09-09T08:42:45.321Z,22.30
2018-09-09T08:43:46.719Z,22.41
2018-09-09T08:44:48.115Z,22.38
2018-09-09T08:45:51.558Z,22.51
2018-09-09T08:46:52.952Z,22.59
2018-09-09T08:47:54.342Z,22.52
2018-09-09T08:48:55.749Z,22.63
2018-09-09T08:49:57.132Z,22.61
2018-09-09T08:50:58.532Z,22.69
2018-09-09T08:52:00.009Z,22.70
2018-09-09T08:53:01.344Z,22.86
2018-09-09T08:54:02.747Z,22.81
2018-09-09T08:55:04.142Z,22.78
2018-09-09T08:56:05.558Z,22.91
2018-09-09T08:57:06.986Z,23.04
2018-09-09T08:58:08.383Z,23.01
2018-09-09T08:59:09.795Z,23.01
2018-09-09T09:00:11.187Z,23.01
2018-09-09T09:01:12.584Z,23.04
2018-09-09T09:02:13.991Z,23.16
2018-09-09T09:03:15.389Z,23.04
2018-09-09T09:04:16.773Z,23.01
2018-09-09T09:05:18.172Z,23.01
2018-09-09T09:06:19.567Z,22.89
2018-09-09T09:07:20.973Z,23.00
2018-09-09T09:08:22.367Z,22.91
2018-09-09T09:09:23.771Z,22.84
2018-09-09T09:10:25.169Z,22.93
2018-09-09T09:11:26.570Z,22.96
2018-09-09T09:12:27.970Z,22.96
2018-09-09T09:13:29.367Z,22.81
2018-09-09T09:14:30.757Z,22.78
2018-09-09T09:15:32.149Z,22.64
2018-09-09T09:16:33.589Z,22.69
2018-09-09T09:17:34.969Z,22.72
2018-09-09T09:18:36.437Z,22.72
2018-09-09T09:19:37.793Z,22.70
2018-09-09T09:20:39.221Z,22.70
2018-09-09T09:21:40.575Z,22.66
2018-09-09T09:22:41.969Z,22.61
2018-09-09T09:23:43.416Z,22.54
2018-09-09T09:24:44.754Z,22.48
2018-09-09T09:25:46.157Z,22.38
2018-09-09T09:26:47.551Z,22.38
2018-09-09T09:27:48.936Z,22.27
2018-09-09T09:28:50.345Z,22.24
2018-09-09T09:29:51.724Z,22.29
2018-09-09T09:30:53.128Z,22.21
2018-09-09T09:31:54.511Z,22.26
2018-09-09T09:32:55.917Z,22.24
2018-09-09T09:33:57.311Z,22.29
2018-09-09T09:34:58.686Z,22.23
2018-09-09T09:36:00.092Z,22.23
2018-09-09T09:37:01.480Z,22.30
2018-09-09T09:38:02.903Z,22.20
2018-09-09T09:39:04.300Z,22.26
2018-09-09T09:40:05.699Z,22.24
2018-09-09T09:41:07.067Z,22.30
2018-09-09T09:42:08.445Z,22.14
2018-09-09T09:43:09.845Z,22.21
2018-09-09T09:44:11.244Z,22.08
2018-09-09T09:45:12.619Z,22.08
2018-09-09T09:46:13.997Z,22.15
2018-09-09T09:47:15.400Z,22.14
2018-09-09T09:48:16.827Z,22.14
2018-09-09T09:49:18.243Z,22.26
2018-09-09T09:50:19.653Z,22.29
2018-09-09T09:51:21.033Z,22.35
2018-09-09T09:52:22.380Z,22.29
2018-09-09T09:53:23.804Z,22.41
2018-09-09T09:54:25.150Z,22.57
2018-09-09T09:55:26.592Z,22.59
2018-09-09T09:56:27.909Z,22.60
2018-09-09T09:57:29.304Z,22.72
2018-09-09T09:58:30.697Z,22.69
2018-09-09T09:59:32.111Z,22.70
2018-09-09T10:00:33.505Z,22.86
2018-09-09T10:01:34.923Z,23.04
2018-09-09T10:02:36.341Z,23.07
2018-09-09T10:03:37.765Z,23.19
2018-09-09T10:04:39.149Z,23.32
2018-09-09T10:05:40.555Z,23.45
2018-09-09T10:06:41.953Z,23.47
2018-09-09T10:07:43.349Z,23.42
2018-09-09T10:08:44.759Z,23.49
2018-09-09T10:09:46.147Z,23.50
2018-09-09T10:10:47.561Z,23.57
2018-09-09T10:11:48.960Z,23.64
2018-09-09T10:12:50.356Z,23.79
2018-09-09T10:13:51.753Z,23.90
2018-09-09T10:14:53.146Z,23.99
2018-09-09T10:15:54.547Z,24.11
2018-09-09T10:16:55.943Z,24.23
2018-09-09T10:17:57.352Z,24.36
2018-09-09T10:18:58.780Z,24.30
2018-09-09T10:20:00.180Z,24.23
2018-09-09T10:21:01.587Z,24.05
2018-09-09T10:22:02.993Z,24.05
2018-09-09T10:23:04.400Z,24.06
2018-09-09T10:24:05.840Z,24.05
2018-09-09T10:25:07.201Z,24.04
2018-09-09T10:26:08.588Z,24.04
2018-09-09T10:27:09.996Z,24.11
2018-09-09T10:28:11.396Z,24.09
2018-09-09T10:29:12.807Z,23.94
2018-09-09T10:30:14.199Z,24.04
2018-09-09T10:31:15.603Z,23.93
2018-09-09T10:32:17.001Z,23.96
2018-09-09T10:33:18.402Z,23.97
2018-09-09T10:34:19.789Z,24.05
2018-09-09T10:35:21.186Z,24.06
2018-09-09T10:36:22.579Z,24.00
2018-09-09T10:37:23.980Z,24.04
2018-09-09T10:38:25.394Z,24.04
2018-09-09T10:39:26.802Z,24.16
2018-09-09T10:40:28.198Z,24.06
2018-09-09T10:41:29.603Z,24.12
2018-09-09T10:42:30.996Z,24.27
2018-09-09T10:43:32.396Z,24.27
2018-09-09T10:44:33.759Z,24.41
2018-09-09T10:45:35.174Z,24.60
2018-09-09T10:46:36.563Z,24.79
2018-09-09T10:47:37.958Z,24.87
2018-09-09T10:48:39.325Z,24.94
2018-09-09T10:49:40.733Z,24.93
2018-09-09T10:50:42.130Z,25.01
2018-09-09T10:51:43.578Z,24.92
2018-09-09T10:52:44.998Z,24.92
2018-09-09T10:53:46.392Z,24.87
2018-09-09T10:54:47.789Z,24.87
2018-09-09T10:55:49.156Z,24.80
2018-09-09T10:56:50.619Z,24.70
2018-09-09T10:57:52.019Z,24.77
2018-09-09T10:58:53.442Z,24.86
2018-09-09T10:59:54.850Z,24.92
2018-09-09T11:00:56.247Z,25.01
2018-09-09T11:01:57.648Z,25.09
2018-09-09T11:02:59.054Z,24.93
2018-09-09T11:04:00.457Z,24.74
2018-09-09T11:05:01.840Z,24.61
2018-09-09T11:06:03.235Z,24.52
2018-09-09T11:07:04.637Z,24.48
2018-09-09T11:08:06.026Z,24.46
2018-09-09T11:09:07.423Z,24.44
2018-09-09T16:49:14.630Z,22.84
2018-09-09T16:50:16.029Z,22.85
2018-09-09T16:51:17.431Z,22.86
2018-09-09T16:52:18.817Z,22.84
2018-09-09T16:53:20.226Z,22.81
2018-09-09T16:54:21.636Z,22.82
2018-09-09T16:55:23.408Z,22.85
2018-09-09T16:56:26.559Z,22.88
2018-09-09T16:57:27.970Z,22.72
2018-09-09T16:58:29.474Z,22.75
2018-09-09T16:59:31.660Z,22.69
2018-09-09T17:00:32.324Z,22.74
2018-09-09T17:01:33.954Z,22.70
2018-09-09T17:02:35.517Z,22.63
2018-09-09T17:03:36.932Z,22.60
2018-09-09T17:04:38.411Z,22.60
2018-09-09T17:05:40.032Z,22.64
2018-09-09T17:06:43.294Z,22.56
2018-09-09T17:07:44.674Z,22.51
2018-09-09T17:08:47.095Z,22.46
2018-09-09T17:09:48.536Z,22.51
2018-09-09T17:10:49.968Z,22.42
2018-09-09T17:11:51.393Z,22.39
2018-09-09T17:12:52.984Z,22.36
2018-09-09T17:13:54.419Z,22.41
2018-09-09T17:14:55.913Z,22.33
2018-09-09T17:15:57.325Z,22.44
2018-09-09T17:16:59.702Z,22.38
2018-09-09T17:18:02.922Z,22.30
2018-09-09T17:19:04.329Z,22.29
2018-09-09T17:20:05.744Z,22.23
2018-09-09T17:21:07.162Z,22.29
2018-09-09T17:22:09.391Z,22.14
2018-09-09T17:23:10.775Z,22.19
2018-09-09T17:24:13.191Z,22.12
2018-09-09T17:25:17.200Z,22.11
2018-09-09T17:26:18.585Z,22.14
2018-09-09T17:27:20.031Z,21.99
2018-09-09T17:28:23.019Z,22.05
2018-09-09T17:29:25.541Z,21.96
2018-09-09T17:30:27.862Z,21.91
2018-09-09T17:31:31.406Z,21.82
2018-09-09T17:32:32.859Z,21.93
2018-09-09T17:33:34.795Z,21.85
2018-09-09T17:34:36.228Z,21.85
2018-09-09T17:35:38.422Z,21.85
2018-09-09T17:36:39.872Z,21.74
2018-09-09T17:37:41.836Z,21.74
2018-09-09T17:38:43.260Z,21.70
2018-09-09T17:39:45.205Z,21.61
2018-09-09T17:40:47.162Z,21.70
2018-09-09T17:41:48.594Z,21.63
2018-09-09T17:42:50.055Z,21.63
2018-09-09T17:43:51.503Z,21.53
2018-09-09T17:44:54.342Z,21.49
2018-09-09T17:45:55.742Z,21.38
2018-09-09T17:46:58.847Z,21.40
2018-09-09T17:48:00.851Z,21.38
2018-09-09T17:49:02.849Z,21.31
2018-09-09T17:50:06.105Z,21.36
2018-09-09T17:51:08.772Z,21.28
2018-09-09T17:52:10.844Z,21.15
2018-09-09T17:53:12.306Z,21.28
2018-09-09T17:54:15.259Z,21.15
2018-09-09T17:55:16.651Z,21.18
2018-09-09T17:56:18.814Z,21.21
2018-09-09T17:57:20.704Z,21.11
2018-09-09T17:58:22.625Z,21.08
2018-09-09T17:59:24.004Z,20.98
2018-09-09T18:00:25.439Z,21.05
2018-09-09T18:01:26.813Z,20.97
2018-09-09T18:02:28.246Z,20.98
2018-09-09T18:03:29.699Z,20.98
2018-09-09T18:04:31.872Z,20.93
2018-09-09T18:05:34.196Z,20.85
2018-09-09T18:06:34.792Z,20.87
2018-09-09T18:07:36.864Z,20.82
2018-09-09T18:08:39.080Z,20.81
2018-09-09T18:09:41.606Z,20.72
2018-09-09T18:10:43.065Z,20.71
2018-09-09T18:11:44.717Z,20.63
2018-09-09T18:12:46.884Z,20.56
2018-09-09T18:13:48.881Z,20.56
2018-09-09T18:14:50.371Z,20.54
2018-09-09T18:15:51.784Z,20.54
2018-09-09T18:16:53.229Z,20.35
2018-09-09T18:17:55.231Z,20.42
2018-09-09T18:18:58.037Z,20.41
2018-09-09T18:20:00.476Z,20.34
2018-09-09T18:21:02.495Z,20.34
2018-09-09T18:22:04.917Z,20.37
2018-09-09T18:23:08.113Z,20.38
2018-09-09T18:24:10.354Z,20.31
2018-09-09T18:25:11.841Z,20.26
2018-09-09T18:26:14.472Z,20.27
2018-09-09T18:27:17.206Z,20.23
2018-09-09T18:28:31.206Z,20.13
2018-09-09T18:29:33.282Z,20.15
2018-09-09T18:30:34.782Z,20.12
2018-09-09T18:31:37.171Z,20.13
2018-09-09T18:32:40.709Z,20.07
2018-09-09T18:33:43.000Z,20.10
2018-09-09T18:34:44.445Z,20.01
2018-09-09T18:35:45.897Z,20.01
2018-09-09T18:36:48.852Z,20.00
2018-09-09T18:37:50.504Z,19.97
2018-09-09T18:38:54.275Z,19.90
2018-09-09T18:39:55.987Z,19.92
2018-09-09T18:40:57.949Z,19.90
2018-09-09T18:42:00.553Z,19.87
2018-09-09T18:43:02.721Z,19.95
2018-09-09T18:44:05.241Z,19.90
2018-09-09T18:45:06.878Z,19.87
2018-09-09T18:46:10.090Z,19.79
2018-09-09T18:47:12.602Z,19.82
2018-09-09T18:48:14.157Z,19.78
2018-09-09T18:49:16.358Z,19.79
2018-09-09T18:50:18.510Z,19.83
2018-09-09T18:51:19.956Z,19.85